Axtell, Texas
Current Conditions -  °F | °C
As of 9:51 PM on Tuesday 21 Oct 2014 (Local Time) from KACT Reporting Station
Clear Clear  
Wind Chill: 66°   Ceiling: Unl
Heat Index: 66°   Visibility: 10mi
Dew Point: 58°   Wind: 5mph
Humidity: 75%   Direction: 100°E
Pressure: 30.05"   Gusts: NA
Location:  31.66°N, 96.97°W
Report Text: KACT 220251Z 10004KT 10SM CLR 19/14 A3005 RMK AO2 SLP172 T01890144 51013
Loading
Personal Weather Stations






























Interactive Weather Map
Tropical Storm Tracking
New forecast layout! Learn more

10-Day Weather Forecast

Advertisements
Track Severe Weather on mobile